Time;durP1;ratioP1;P1;durP2;ratioP2;P2;SDS_P1;SDS_P2;PMS_P1;PMS_P2;Temp;Humidity;BMP_temperature;BMP_pressure;BME280_temperature;BME280_humidity;BME280_pressure;Samples;Min_cycle;Max_cycle;Signal;HPM_P1;HPM_P2
2023/01/07 00:01:25;;;;;;;1.83;1.53;;;;;;;13.45;54.09;97969.88;5041437;28;20415;-70
2023/01/07 00:03:51;;;;;;;1.70;1.60;;;;;;;13.46;53.81;97970.72;5047269;28;20522;-69
2023/01/07 00:06:17;;;;;;;1.60;1.50;;;;;;;13.43;54.01;97966.56;5044186;28;20434;-69
2023/01/07 00:08:46;;;;;;;1.73;1.57;;;;;;;13.35;54.45;97963.84;5041280;28;20414;-72
2023/01/07 00:11:18;;;;;;;2.60;1.70;;;;;;;13.34;54.51;97960.41;5047287;28;20421;-70
2023/01/07 00:13:44;;;;;;;3.87;1.77;;;;;;;13.32;54.76;97962.34;5041250;28;20466;-71
2023/01/07 00:16:12;;;;;;;1.60;1.50;;;;;;;13.35;54.66;97967.31;5045307;28;20454;-70
2023/01/07 00:18:38;;;;;;;1.63;1.53;;;;;;;13.31;54.93;97973.84;5046116;28;20447;-69
2023/01/07 00:21:06;;;;;;;1.83;1.73;;;;;;;13.35;54.94;97969.97;5050681;28;20472;-69
2023/01/07 00:23:33;;;;;;;1.87;1.70;;;;;;;13.37;55.01;97967.16;5039327;28;20433;-70
2023/01/07 00:26:04;;;;;;;2.10;1.70;;;;;;;13.42;54.48;97966.72;5043544;28;20917;-71
2023/01/07 00:28:29;;;;;;;3.17;2.43;;;;;;;13.48;54.56;97958.25;5044681;28;20444;-70
2023/01/07 00:31:03;;;;;;;1.73;1.50;;;;;;;13.51;54.53;97953.50;5043765;28;20410;-71
2023/01/07 00:33:28;;;;;;;2.10;1.90;;;;;;;13.46;54.66;97947.03;5043108;28;20728;-69
2023/01/07 00:36:07;;;;;;;2.10;1.93;;;;;;;13.44;54.82;97935.81;5044737;28;20513;-69
2023/01/07 00:38:33;;;;;;;2.53;2.00;;;;;;;13.40;54.91;97942.34;5040583;28;20175;-71
2023/01/07 00:40:59;;;;;;;1.80;1.70;;;;;;;13.42;55.06;97935.13;5046969;28;20922;-71
2023/01/07 00:43:25;;;;;;;2.43;2.00;;;;;;;13.45;54.53;97937.47;5047406;28;20438;-71
2023/01/07 00:45:51;;;;;;;2.20;2.00;;;;;;;13.40;54.94;97940.56;5050721;28;20428;-71
2023/01/07 00:48:17;;;;;;;2.70;1.77;;;;;;;13.36;55.10;97926.81;5050944;28;20187;-71
2023/01/07 00:50:43;;;;;;;2.80;2.00;;;;;;;13.41;55.04;97929.06;5050785;28;20253;-71
2023/01/07 00:53:10;;;;;;;2.93;2.00;;;;;;;13.39;55.16;97924.88;5050694;28;20489;-71
2023/01/07 00:55:35;;;;;;;1.93;1.43;;;;;;;13.40;55.09;97929.19;5051164;28;20460;-70
2023/01/07 00:58:01;;;;;;;3.10;1.90;;;;;;;13.37;55.33;97920.59;5050962;28;20433;-70
2023/01/07 01:00:26;;;;;;;2.00;1.90;;;;;;;13.34;55.60;97925.34;5050985;28;20195;-71
2023/01/07 01:02:52;;;;;;;2.50;2.30;;;;;;;13.40;55.34;97923.94;5051244;28;20206;-70
2023/01/07 01:05:18;;;;;;;3.50;1.73;;;;;;;13.37;55.51;97919.78;5050963;28;20578;-70
2023/01/07 01:07:44;;;;;;;4.53;2.00;;;;;;;13.31;55.50;97923.84;5049800;28;20183;-71
2023/01/07 01:10:11;;;;;;;2.20;2.00;;;;;;;13.33;55.46;97921.03;5056091;28;20942;-71
2023/01/07 01:12:37;;;;;;;3.43;1.87;;;;;;;13.27;55.77;97919.84;5050838;28;20269;-70
2023/01/07 01:15:05;;;;;;;2.23;1.70;;;;;;;13.32;55.92;97917.59;5035016;28;20442;-70
2023/01/07 01:17:31;;;;;;;2.23;2.03;;;;;;;13.33;55.99;97914.00;5045346;28;20522;-70
2023/01/07 01:19:56;;;;;;;7.63;2.00;;;;;;;13.33;55.59;97916.63;5050027;28;20445;-71
2023/01/07 01:22:22;;;;;;;2.70;2.50;;;;;;;13.28;55.56;97912.78;5050882;28;20270;-71
2023/01/07 01:24:48;;;;;;;2.03;1.70;;;;;;;13.25;56.13;97913.91;5045372;28;20207;-71
2023/01/07 01:27:14;;;;;;;2.33;2.13;;;;;;;13.33;55.87;97918.41;5050354;28;20612;-70
2023/01/07 01:29:39;;;;;;;3.00;2.10;;;;;;;13.35;55.95;97916.47;5050630;28;20424;-71
2023/01/07 01:32:05;;;;;;;3.07;2.13;;;;;;;13.39;55.71;97911.72;5050415;28;20226;-71
2023/01/07 01:34:31;;;;;;;2.50;2.13;;;;;;;13.40;55.68;97914.25;5050303;28;20639;-70
2023/01/07 01:36:56;;;;;;;2.37;2.17;;;;;;;13.41;55.81;97904.53;5046425;28;20509;-70
2023/01/07 01:39:22;;;;;;;2.40;2.07;;;;;;;13.43;55.39;97903.38;5050199;28;20776;-70
2023/01/07 01:41:47;;;;;;;2.50;2.20;;;;;;;13.34;55.46;97907.75;5053765;28;20182;-69
2023/01/07 01:44:47;;;;;;;6.43;2.33;;;;;;;13.26;55.74;97910.28;5047934;28;20210;-70
2023/01/07 01:47:24;;;;;;;4.70;2.17;;;;;;;13.31;55.56;97904.56;5038140;28;20693;-70
2023/01/07 01:50:14;;;;;;;3.17;2.27;;;;;;;13.26;55.44;97902.41;5050722;28;20436;-70
2023/01/07 01:52:44;;;;;;;2.60;2.40;;;;;;;13.26;55.36;97907.66;5043512;28;20464;-71
2023/01/07 01:55:12;;;;;;;2.23;2.03;;;;;;;13.27;55.40;97901.44;5049091;28;20781;-70
2023/01/07 01:57:38;;;;;;;3.30;2.20;;;;;;;13.24;55.10;97901.72;5050280;28;20425;-70
2023/01/07 02:00:05;;;;;;;3.33;2.23;;;;;;;13.28;55.17;97903.06;5050503;28;20428;-70
2023/01/07 02:02:39;;;;;;;2.47;1.90;;;;;;;13.19;55.03;97896.91;5049435;28;20271;-71
2023/01/07 02:05:05;;;;;;;2.10;1.80;;;;;;;13.23;55.31;97896.63;5049074;28;20426;-70
2023/01/07 02:07:31;;;;;;;1.50;1.40;;;;;;;13.21;55.19;97894.97;5041407;28;20475;-69
2023/01/07 02:10:12;;;;;;;2.13;1.40;;;;;;;13.23;54.78;97900.09;5054630;28;20849;-70
2023/01/07 02:13:02;;;;;;;1.57;1.47;;;;;;;13.23;55.16;97889.56;5043446;28;20217;-69
2023/01/07 02:15:35;;;;;;;2.07;1.60;;;;;;;13.28;54.73;97882.03;5049738;28;20433;-70
2023/01/07 02:18:20;;;;;;;1.63;1.40;;;;;;;13.28;53.75;97882.03;5049168;28;20432;-70
2023/01/07 02:20:54;;;;;;;1.60;1.40;;;;;;;13.28;53.68;97884.66;5048835;28;20770;-70
2023/01/07 02:23:49;;;;;;;1.30;1.20;;;;;;;13.29;53.90;97880.22;5041357;28;20448;-70
2023/01/07 02:26:31;;;;;;;1.60;1.50;;;;;;;13.15;54.26;97876.31;5049745;28;20417;-69
2023/01/07 02:29:14;;;;;;;2.50;1.27;;;;;;;13.13;54.66;97876.47;5050147;28;20799;-69
2023/01/07 02:32:02;;;;;;;1.73;1.63;;;;;;;13.21;54.39;97860.75;5043082;28;20436;-69
2023/01/07 02:34:30;;;;;;;1.30;1.00;;;;;;;13.20;54.24;97866.19;5049211;28;20457;-69
2023/01/07 02:37:14;;;;;;;1.50;1.00;;;;;;;13.23;53.97;97855.34;5052656;28;20422;-68
2023/01/07 02:39:56;;;;;;;1.10;1.00;;;;;;;13.17;53.58;97861.22;5050367;28;20920;-71
2023/01/07 02:42:46;;;;;;;1.00;0.80;;;;;;;13.25;52.90;97852.56;5052763;28;20437;-69
2023/01/07 02:45:18;;;;;;;1.40;1.30;;;;;;;13.22;52.99;97848.44;5050495;28;20808;-69
2023/01/07 02:47:50;;;;;;;2.90;1.30;;;;;;;13.26;52.91;97844.50;5053684;28;20482;-70
2023/01/07 02:50:15;;;;;;;1.50;1.30;;;;;;;13.28;53.05;97837.28;5035555;28;20419;-71
2023/01/07 02:52:40;;;;;;;5.03;1.20;;;;;;;13.26;52.98;97836.59;5053533;28;20548;-69
2023/01/07 02:55:11;;;;;;;2.73;1.47;;;;;;;13.19;53.43;97839.00;5053763;28;20206;-68
2023/01/07 02:58:13;;;;;;;1.60;1.20;;;;;;;13.04;54.60;97833.47;5053725;28;20182;-70
2023/01/07 03:00:50;;;;;;;1.17;1.07;;;;;;;13.13;54.83;97836.16;5054191;28;20425;-71
2023/01/07 03:03:53;;;;;;;2.47;1.40;;;;;;;13.11;54.56;97820.53;5053419;28;20456;-70
2023/01/07 03:06:41;;;;;;;3.20;1.10;;;;;;;13.05;54.09;97827.25;5053575;28;20413;-71
2023/01/07 03:09:53;;;;;;;1.80;1.17;;;;;;;12.96;53.98;97827.31;5053534;28;20448;-71
2023/01/07 03:12:40;;;;;;;1.50;1.40;;;;;;;12.91;54.01;97819.88;5051350;28;20453;-71
2023/01/07 03:15:17;;;;;;;2.33;1.07;;;;;;;13.00;53.34;97816.34;5052734;28;20448;-69
2023/01/07 03:17:53;;;;;;;1.80;1.20;;;;;;;13.05;52.92;97814.09;5045047;28;20432;-71
2023/01/07 03:20:19;;;;;;;1.70;1.10;;;;;;;12.96;53.41;97804.50;5052643;28;20425;-71
2023/01/07 03:22:45;;;;;;;1.57;1.20;;;;;;;12.93;54.42;97810.03;5047644;28;20423;-70
2023/01/07 03:25:12;;;;;;;1.63;1.20;;;;;;;12.95;54.43;97802.00;5046252;28;20426;-70
2023/01/07 03:27:38;;;;;;;1.93;1.00;;;;;;;12.92;54.13;97799.69;5052703;28;20909;-71
2023/01/07 03:30:06;;;;;;;2.20;1.20;;;;;;;12.83;53.86;97806.69;5051594;28;20426;-71
2023/01/07 03:32:37;;;;;;;1.00;0.90;;;;;;;12.82;54.22;97794.50;5046026;28;20980;-71
2023/01/07 03:35:03;;;;;;;1.77;1.23;;;;;;;12.87;53.76;97794.84;5051551;28;21000;-71
2023/01/07 03:37:29;;;;;;;1.20;1.10;;;;;;;12.89;53.27;97785.84;5050677;28;20512;-71
2023/01/07 03:39:55;;;;;;;1.20;1.10;;;;;;;12.94;53.02;97782.75;5051232;28;20430;-71
2023/01/07 03:42:41;;;;;;;2.70;1.30;;;;;;;12.95;52.05;97784.41;5060120;28;20421;-72
2023/01/07 03:45:08;;;;;;;1.43;1.33;;;;;;;12.93;52.38;97786.38;5048533;28;20432;-71
2023/01/07 03:47:34;;;;;;;1.73;1.40;;;;;;;12.94;51.95;97788.03;5052097;28;20422;-72
2023/01/07 03:50:00;;;;;;;1.30;1.20;;;;;;;12.95;51.94;97784.41;5051047;28;20422;-71
2023/01/07 03:52:25;;;;;;;1.10;1.00;;;;;;;12.90;52.42;97781.41;5043900;28;20433;-71
2023/01/07 03:54:51;;;;;;;1.47;1.37;;;;;;;12.83;52.05;97778.56;5051964;28;20438;-70
2023/01/07 03:57:16;;;;;;;1.27;1.17;;;;;;;12.81;52.11;97775.25;5052116;28;20262;-70
2023/01/07 03:59:42;;;;;;;1.30;1.20;;;;;;;12.86;51.89;97772.16;5049478;28;20590;-71
2023/01/07 04:02:13;;;;;;;1.53;1.33;;;;;;;12.89;51.90;97764.81;5050708;28;20205;-71
2023/01/07 04:04:39;;;;;;;1.60;1.50;;;;;;;12.91;51.34;97762.00;5038855;28;20660;-70
2023/01/07 04:07:04;;;;;;;2.23;1.73;;;;;;;12.90;51.72;97765.63;5054699;28;20440;-70
2023/01/07 04:09:30;;;;;;;1.60;1.50;;;;;;;12.90;51.75;97760.38;5055214;28;20232;-70
2023/01/07 04:11:55;;;;;;;1.00;0.90;;;;;;;12.85;50.73;97757.38;5063781;28;20279;-70
2023/01/07 04:14:20;;;;;;;1.23;1.13;;;;;;;12.90;51.28;97760.38;5060237;28;20334;-70
2023/01/07 04:16:46;;;;;;;1.60;1.50;;;;;;;12.97;51.07;97750.06;5059865;28;20194;-71
2023/01/07 04:19:11;;;;;;;1.30;1.20;;;;;;;12.96;51.09;97751.88;5061595;28;20187;-71
2023/01/07 04:21:37;;;;;;;1.20;1.10;;;;;;;12.93;51.22;97751.31;5064812;28;20184;-70
2023/01/07 04:24:02;;;;;;;1.40;1.30;;;;;;;12.85;51.24;97741.59;5050030;28;20187;-71
2023/01/07 04:26:28;;;;;;;1.50;1.40;;;;;;;12.88;51.26;97750.00;5057584;28;20182;-71
2023/01/07 04:28:53;;;;;;;1.30;1.20;;;;;;;12.86;50.67;97736.16;5062474;28;20181;-69
2023/01/07 04:31:19;;;;;;;1.40;1.30;;;;;;;12.90;50.76;97745.41;5061028;28;20667;-71
2023/01/07 04:33:44;;;;;;;2.70;1.03;;;;;;;12.91;51.17;97743.59;5054487;28;20210;-70
2023/01/07 04:36:12;;;;;;;1.83;1.37;;;;;;;12.93;50.88;97739.00;5055441;28;20854;-71
2023/01/07 04:38:37;;;;;;;3.30;1.97;;;;;;;12.94;51.11;97732.78;5065899;28;20182;-70
2023/01/07 04:41:03;;;;;;;1.77;1.53;;;;;;;12.98;50.99;97728.03;5049328;28;20498;-70
2023/01/07 04:43:28;;;;;;;2.43;1.50;;;;;;;12.96;50.99;97727.34;5061683;28;20198;-71
2023/01/07 04:45:54;;;;;;;1.80;1.50;;;;;;;13.00;50.56;97724.25;5060996;28;20700;-70
2023/01/07 04:48:19;;;;;;;1.33;1.23;;;;;;;12.94;50.62;97724.03;5063994;28;20658;-70
2023/01/07 04:50:46;;;;;;;1.20;1.10;;;;;;;12.96;51.51;97717.66;5052993;28;20490;-71
2023/01/07 04:53:11;;;;;;;1.50;1.10;;;;;;;12.91;51.99;97714.66;5056511;28;20207;-71
2023/01/07 04:55:37;;;;;;;4.87;1.40;;;;;;;12.86;52.13;97719.53;5061207;28;20836;-71
2023/01/07 04:58:02;;;;;;;1.37;1.27;;;;;;;12.87;52.16;97723.84;5057160;28;20266;-71
2023/01/07 05:00:27;;;;;;;6.20;1.30;;;;;;;12.91;52.33;97717.28;5062115;28;20178;-71
2023/01/07 05:02:53;;;;;;;1.40;1.30;;;;;;;12.92;52.54;97716.31;5063615;28;20255;-71
2023/01/07 05:05:18;;;;;;;1.80;1.20;;;;;;;12.81;52.74;97708.69;5054927;28;20257;-70
2023/01/07 05:07:44;;;;;;;1.50;1.40;;;;;;;12.81;52.65;97706.06;5064215;28;20270;-71
2023/01/07 05:10:09;;;;;;;2.23;1.47;;;;;;;12.75;52.27;97697.78;5056130;28;20171;-71
2023/01/07 05:12:36;;;;;;;1.20;1.10;;;;;;;12.78;51.96;97701.09;5065465;28;20288;-71
2023/01/07 05:15:02;;;;;;;1.57;1.47;;;;;;;12.83;51.51;97696.22;5059235;28;20208;-70
2023/01/07 05:17:28;;;;;;;1.40;1.30;;;;;;;12.80;51.42;97699.13;5060983;28;20542;-70
2023/01/07 05:19:53;;;;;;;1.43;1.33;;;;;;;12.80;51.96;97696.50;5056135;28;20504;-70
2023/01/07 05:22:19;;;;;;;2.90;1.53;;;;;;;12.77;52.14;97699.44;5062618;28;20262;-71
2023/01/07 05:24:44;;;;;;;1.30;1.20;;;;;;;12.77;52.02;97697.66;5049337;28;20698;-70
2023/01/07 05:27:10;;;;;;;1.67;1.57;;;;;;;12.80;52.03;97696.50;5065313;28;20260;-70
2023/01/07 05:29:35;;;;;;;1.70;1.60;;;;;;;12.77;51.70;97687.13;5060486;28;20619;-70
2023/01/07 05:32:01;;;;;;;1.60;1.50;;;;;;;12.72;51.94;97679.72;5057178;28;20184;-71
2023/01/07 05:34:26;;;;;;;1.93;1.73;;;;;;;12.70;52.20;97683.44;5057026;28;20214;-70
2023/01/07 05:36:52;;;;;;;1.50;1.40;;;;;;;12.65;52.43;97678.66;5061959;28;20193;-71
2023/01/07 05:39:17;;;;;;;1.67;1.57;;;;;;;12.70;52.46;97679.03;5055653;28;20262;-71
2023/01/07 05:41:43;;;;;;;1.60;1.50;;;;;;;12.63;52.38;97680.59;5056640;28;20592;-70
2023/01/07 05:44:08;;;;;;;2.53;1.50;;;;;;;12.62;52.48;97678.94;5063385;28;20281;-71
2023/01/07 05:46:33;;;;;;;3.50;1.73;;;;;;;12.60;52.98;97678.31;5062002;28;20175;-71
2023/01/07 05:48:59;;;;;;;1.50;1.40;;;;;;;12.63;53.33;97688.50;5063488;28;20186;-69
2023/01/07 05:51:24;;;;;;;1.50;1.40;;;;;;;12.63;52.41;97680.59;5060337;28;20205;-71
2023/01/07 05:53:50;;;;;;;1.70;1.60;;;;;;;12.62;52.58;97672.88;5061397;28;20262;-71
2023/01/07 05:56:15;;;;;;;6.57;3.17;;;;;;;12.58;53.00;97672.38;5064027;28;20217;-71
2023/01/07 05:58:41;;;;;;;2.50;1.53;;;;;;;12.60;52.71;97662.53;5061259;28;20185;-71
2023/01/07 06:01:06;;;;;;;1.47;1.37;;;;;;;12.62;52.67;97665.81;5062525;28;20174;-68
2023/01/07 06:03:31;;;;;;;1.80;1.57;;;;;;;12.58;52.91;97664.47;5048610;28;20332;-70
2023/01/07 06:05:57;;;;;;;1.53;1.43;;;;;;;12.59;52.77;97659.06;5062154;28;20171;-70
2023/01/07 06:08:23;;;;;;;1.60;1.50;;;;;;;12.56;52.22;97661.19;5060877;28;20283;-70
2023/01/07 06:10:48;;;;;;;1.47;1.37;;;;;;;12.57;52.64;97657.56;5061528;28;20186;-71
2023/01/07 06:13:14;;;;;;;1.60;1.43;;;;;;;12.44;52.84;97658.81;5066771;28;20233;-70
2023/01/07 06:15:39;;;;;;;3.67;1.70;;;;;;;12.46;52.36;97660.44;5060336;28;20213;-69
2023/01/07 06:18:04;;;;;;;1.40;1.30;;;;;;;12.51;52.50;97661.63;5070133;28;20607;-70
2023/01/07 06:20:33;;;;;;;2.10;1.50;;;;;;;12.52;52.63;97658.03;5066618;28;20178;-71
2023/01/07 06:23:01;;;;;;;1.40;1.30;;;;;;;12.61;52.27;97651.00;5056428;28;20179;-71
2023/01/07 06:25:28;;;;;;;1.57;1.47;;;;;;;12.63;52.31;97653.50;5070952;28;20912;-70
2023/01/07 06:27:55;;;;;;;2.53;1.50;;;;;;;12.57;52.34;97654.94;5064482;28;20421;-71
2023/01/07 06:30:21;;;;;;;1.67;1.57;;;;;;;12.61;52.23;97651.00;5063851;28;20990;-70
2023/01/07 06:32:46;;;;;;;1.47;1.37;;;;;;;12.59;52.28;97648.53;5067173;28;20457;-70
2023/01/07 06:35:12;;;;;;;1.50;1.40;;;;;;;12.54;52.29;97655.25;5055979;28;20733;-70
2023/01/07 06:37:37;;;;;;;1.97;1.60;;;;;;;12.52;52.28;97652.78;5069635;28;20248;-69
2023/01/07 06:40:03;;;;;;;1.30;1.20;;;;;;;12.47;52.62;97649.78;5061068;28;20186;-69
2023/01/07 06:42:28;;;;;;;1.80;1.70;;;;;;;12.51;52.70;97639.78;5067911;28;20669;-70
2023/01/07 06:44:54;;;;;;;1.40;1.30;;;;;;;12.49;52.60;97647.81;5064595;28;20199;-69
2023/01/07 06:47:19;;;;;;;2.07;1.40;;;;;;;12.51;52.86;97643.25;5069042;28;20261;-70
2023/01/07 06:49:44;;;;;;;1.50;1.40;;;;;;;12.52;52.47;97639.63;5065832;28;20194;-70
2023/01/07 06:52:10;;;;;;;1.40;1.30;;;;;;;12.47;52.73;97639.25;5061964;28;20201;-70
2023/01/07 06:54:35;;;;;;;1.80;1.63;;;;;;;12.53;52.85;97632.56;5059484;28;20563;-70
2023/01/07 06:57:01;;;;;;;1.40;1.30;;;;;;;12.59;52.85;97631.97;5062588;28;20199;-70
2023/01/07 06:59:26;;;;;;;1.30;1.20;;;;;;;12.58;52.24;97625.84;5069836;28;20178;-69
2023/01/07 07:01:52;;;;;;;1.97;1.30;;;;;;;12.41;52.08;97639.88;5064907;28;20670;-69
2023/01/07 07:04:17;;;;;;;1.47;1.30;;;;;;;12.46;52.13;97631.53;5070586;28;20224;-69
2023/01/07 07:06:43;;;;;;;4.07;1.37;;;;;;;12.36;52.15;97627.19;5066248;28;20183;-69
2023/01/07 07:09:08;;;;;;;1.67;1.27;;;;;;;12.35;52.07;97630.78;5061520;28;20290;-69
2023/01/07 07:11:34;;;;;;;1.70;1.60;;;;;;;12.23;51.51;97637.25;5067468;28;20178;-70
2023/01/07 07:13:59;;;;;;;1.80;1.70;;;;;;;12.23;51.06;97632.00;5053964;28;20210;-70
2023/01/07 07:16:25;;;;;;;1.97;1.27;;;;;;;12.26;51.13;97631.72;5064220;28;20186;-70
2023/01/07 07:18:51;;;;;;;1.83;1.50;;;;;;;12.31;51.23;97621.56;5064098;28;20571;-69
2023/01/07 07:21:17;;;;;;;1.50;1.40;;;;;;;12.31;51.18;97618.94;5070419;28;20199;-69
2023/01/07 07:23:42;;;;;;;2.00;1.80;;;;;;;12.25;51.20;97611.66;5054859;28;20982;-70
2023/01/07 07:26:09;;;;;;;1.40;1.30;;;;;;;12.24;51.06;97612.63;5066740;28;20194;-70
2023/01/07 07:28:34;;;;;;;1.43;1.30;;;;;;;12.22;51.29;97618.06;5065757;28;20185;-69
2023/01/07 07:31:00;;;;;;;1.47;1.30;;;;;;;12.23;51.32;97616.25;5069153;28;20784;-70
2023/01/07 07:33:25;;;;;;;2.83;1.83;;;;;;;12.31;51.05;97612.84;5064588;28;20226;-71
2023/01/07 07:35:51;;;;;;;2.37;1.70;;;;;;;12.35;50.80;97612.38;5058737;28;20260;-71
2023/01/07 07:38:17;;;;;;;2.30;2.10;;;;;;;12.35;51.07;97606.31;5064982;28;20174;-70
2023/01/07 07:40:43;;;;;;;2.63;2.40;;;;;;;12.39;51.28;97603.22;5064044;28;20515;-70
2023/01/07 07:43:09;;;;;;;2.27;1.63;;;;;;;12.36;51.16;97605.34;5052083;28;20441;-69
2023/01/07 07:45:35;;;;;;;2.13;1.93;;;;;;;12.40;51.36;97606.69;5064452;28;20254;-71
2023/01/07 07:48:00;;;;;;;2.00;1.67;;;;;;;12.34;51.20;97599.41;5068640;28;20409;-69
2023/01/07 07:50:26;;;;;;;2.00;1.90;;;;;;;12.32;51.49;97598.72;5057869;28;20235;-71
2023/01/07 07:52:51;;;;;;;4.90;2.90;;;;;;;12.36;51.04;97594.81;5063267;28;20662;-71
2023/01/07 07:55:17;;;;;;;3.47;3.10;;;;;;;12.27;51.62;97592.16;5065286;28;20171;-70
2023/01/07 07:57:42;;;;;;;4.50;2.60;;;;;;;12.38;51.83;97582.34;5059246;28;20265;-71
2023/01/07 08:00:08;;;;;;;1.80;1.70;;;;;;;12.47;51.30;97585.88;5065761;28;20736;-69
2023/01/07 08:02:34;;;;;;;2.70;2.27;;;;;;;12.48;51.63;97587.50;5064425;28;20182;-70
2023/01/07 08:04:59;;;;;;;3.97;3.20;;;;;;;12.46;51.80;97589.47;5069074;28;20809;-69
2023/01/07 08:07:24;;;;;;;2.10;1.90;;;;;;;12.44;51.41;97587.81;5064983;28;20367;-70
2023/01/07 08:09:50;;;;;;;1.80;1.70;;;;;;;12.37;51.28;97588.59;5063623;28;20227;-70
2023/01/07 08:12:15;;;;;;;1.47;1.33;;;;;;;12.27;51.84;97578.16;5065004;28;20187;-70
2023/01/07 08:14:41;;;;;;;1.90;1.77;;;;;;;12.25;52.09;97580.13;5064361;28;20206;-70
2023/01/07 08:17:06;;;;;;;1.50;1.40;;;;;;;12.34;52.10;97579.22;5063619;28;20258;-70
2023/01/07 08:19:32;;;;;;;1.97;1.60;;;;;;;12.39;52.35;97581.38;5064131;28;20212;-70
2023/01/07 08:21:57;;;;;;;6.70;4.63;;;;;;;12.37;51.83;97573.63;5069257;28;20185;-71
2023/01/07 08:24:23;;;;;;;4.27;3.87;;;;;;;12.31;51.90;97570.78;5053229;28;20329;-71
2023/01/07 08:26:49;;;;;;;3.37;3.07;;;;;;;12.33;52.51;97566.22;5062544;28;20178;-71
2023/01/07 08:29:14;;;;;;;6.27;5.20;;;;;;;12.36;52.06;97574.63;5062515;28;20209;-71
2023/01/07 08:31:40;;;;;;;5.63;3.97;;;;;;;12.43;52.27;97578.28;5068381;28;20531;-71
2023/01/07 08:34:05;;;;;;;4.20;2.53;;;;;;;12.48;52.01;97575.19;5058171;28;20210;-70
2023/01/07 08:36:31;;;;;;;2.40;2.20;;;;;;;12.44;52.07;97572.06;5060464;28;20202;-71
2023/01/07 08:38:56;;;;;;;2.67;2.47;;;;;;;12.43;52.17;97570.41;5042473;28;20199;-70
2023/01/07 08:41:23;;;;;;;2.07;1.87;;;;;;;12.42;52.53;97571.38;5047373;28;20211;-71
2023/01/07 08:43:49;;;;;;;2.03;1.90;;;;;;;12.48;52.12;97572.56;5056568;28;20197;-70
2023/01/07 08:46:15;;;;;;;2.07;1.63;;;;;;;12.52;51.80;97567.81;5051948;28;20914;-70
2023/01/07 08:48:40;;;;;;;11.63;2.30;;;;;;;12.49;51.86;97563.69;5053881;28;20219;-70
2023/01/07 08:51:06;;;;;;;2.80;1.60;;;;;;;12.53;51.96;97564.19;5033171;28;20422;-69
2023/01/07 08:53:32;;;;;;;2.10;1.90;;;;;;;12.51;51.82;97556.47;5033810;28;20269;-70
2023/01/07 08:55:57;;;;;;;2.23;2.03;;;;;;;12.50;51.79;97561.88;5034159;28;20196;-70
2023/01/07 08:58:24;;;;;;;1.93;1.83;;;;;;;12.52;51.67;97552.03;5033698;28;21189;-71
2023/01/07 09:00:51;;;;;;;4.23;1.90;;;;;;;12.59;51.31;97558.34;5034170;28;20202;-71
2023/01/07 09:03:16;;;;;;;3.90;1.77;;;;;;;12.60;51.51;97552.09;5036679;28;20445;-70
2023/01/07 09:05:42;;;;;;;1.47;1.30;;;;;;;12.61;51.74;97551.09;5032025;28;20418;-71
2023/01/07 09:08:08;;;;;;;4.30;1.80;;;;;;;12.62;51.36;97551.94;5036366;28;20313;-70
2023/01/07 09:10:33;;;;;;;1.93;1.63;;;;;;;12.60;51.69;97557.34;5037938;28;20994;-71
2023/01/07 09:12:59;;;;;;;2.00;1.80;;;;;;;12.68;51.37;97557.38;5038540;28;20750;-71
2023/01/07 09:15:24;;;;;;;3.73;3.27;;;;;;;12.77;51.57;97553.00;5038172;28;20271;-71
2023/01/07 09:17:50;;;;;;;9.17;5.70;;;;;;;12.80;51.48;97557.09;5023763;28;20180;-71
2023/01/07 09:20:15;;;;;;;9.70;7.00;;;;;;;12.82;51.32;97553.31;5039882;28;20232;-71
2023/01/07 09:22:41;;;;;;;2.70;2.40;;;;;;;12.92;51.00;97547.13;5035976;28;20694;-71
2023/01/07 09:25:07;;;;;;;1.87;1.77;;;;;;;12.96;50.60;97558.97;5059551;28;20286;-70
2023/01/07 09:27:33;;;;;;;1.70;1.60;;;;;;;12.90;50.50;97544.66;5064451;28;20182;-71
2023/01/07 09:29:58;;;;;;;1.63;1.53;;;;;;;12.88;50.72;97547.44;5055817;28;20265;-70
2023/01/07 09:32:25;;;;;;;1.83;1.70;;;;;;;12.79;50.26;97555.47;5066277;28;20431;-71
2023/01/07 09:34:50;;;;;;;2.70;2.50;;;;;;;12.78;51.03;97561.69;5031625;28;20261;-71
2023/01/07 09:37:16;;;;;;;3.20;2.17;;;;;;;12.86;50.83;97559.09;5039017;28;20429;-72
2023/01/07 09:39:41;;;;;;;2.07;1.90;;;;;;;12.87;51.36;97555.47;5037604;28;20175;-71
2023/01/07 09:42:14;;;;;;;3.73;2.90;;;;;;;12.85;50.99;97554.84;5044486;28;20258;-70
2023/01/07 09:45:03;;;;;;;2.37;2.17;;;;;;;12.97;50.61;97556.19;5054433;28;20198;-71
2023/01/07 09:47:29;;;;;;;2.93;2.40;;;;;;;13.04;50.62;97557.19;5063608;28;20509;-71
2023/01/07 09:49:57;;;;;;;2.70;2.37;;;;;;;13.06;50.89;97549.13;5049002;28;20873;-71
2023/01/07 09:52:28;;;;;;;5.50;3.43;;;;;;;13.10;50.92;97552.28;5041550;28;20191;-71
2023/01/07 09:55:00;;;;;;;3.93;3.53;;;;;;;13.13;50.65;97542.28;5051292;28;20481;-71
2023/01/07 09:57:26;;;;;;;4.23;3.83;;;;;;;12.98;50.54;97541.22;5040808;28;21980;-71
2023/01/07 09:59:52;;;;;;;6.77;3.90;;;;;;;12.91;50.93;97541.03;5053886;28;20471;-71
2023/01/07 10:02:42;;;;;;;4.47;4.00;;;;;;;12.94;50.71;97535.47;5039790;28;20430;-71
2023/01/07 10:05:38;;;;;;;4.70;3.83;;;;;;;13.27;49.95;97518.94;5052556;28;20286;-71
2023/01/07 10:08:06;;;;;;;8.60;4.20;;;;;;;13.42;49.51;97519.16;5037618;28;20458;-70
2023/01/07 10:10:45;;;;;;;3.73;3.43;;;;;;;14.01;48.44;97515.53;5042576;28;20417;-71
2023/01/07 10:13:24;;;;;;;4.37;3.97;;;;;;;14.40;46.99;97520.06;5049873;28;20461;-71
2023/01/07 10:15:58;;;;;;;5.50;3.87;;;;;;;14.78;46.02;97507.13;5051986;28;20786;-71
2023/01/07 10:18:50;;;;;;;3.97;3.60;;;;;;;15.52;44.44;97501.41;5053739;28;20423;-71
2023/01/07 10:21:25;;;;;;;4.87;3.43;;;;;;;15.69;43.38;97503.91;5053138;28;20424;-71
2023/01/07 10:24:02;;;;;;;23.47;4.63;;;;;;;15.78;42.95;97496.75;5042461;28;20436;-71
2023/01/07 10:26:39;;;;;;;3.70;3.30;;;;;;;16.28;42.25;97491.81;5063719;28;20924;-71
2023/01/07 10:29:27;;;;;;;4.50;3.70;;;;;;;16.95;41.27;97484.78;5049607;28;20786;-71
2023/01/07 10:31:53;;;;;;;8.00;4.20;;;;;;;16.85;40.17;97486.88;5061427;28;20405;-71
2023/01/07 10:34:24;;;;;;;4.10;3.10;;;;;;;17.41;39.70;97477.50;5054032;28;20487;-69
2023/01/07 10:37:00;;;;;;;3.90;3.60;;;;;;;17.56;38.99;97478.25;5047890;28;20460;-69
2023/01/07 10:39:58;;;;;;;4.13;3.70;;;;;;;17.34;38.73;97474.78;5054478;28;22059;-72
2023/01/07 10:42:50;;;;;;;4.20;3.80;;;;;;;17.36;38.88;97478.06;5047209;28;20430;-69
2023/01/07 10:45:30;;;;;;;4.40;3.50;;;;;;;17.08;39.62;97480.66;5051786;28;20456;-72
2023/01/07 10:48:13;;;;;;;3.83;3.37;;;;;;;17.25;39.33;97460.88;5048588;28;20439;-70
2023/01/07 10:50:51;;;;;;;3.20;3.00;;;;;;;17.11;39.67;97459.09;5042988;28;20443;-72
2023/01/07 10:53:44;;;;;;;3.53;3.27;;;;;;;17.04;39.56;97453.72;5042949;28;20504;-70
2023/01/07 10:56:23;;;;;;;3.80;3.50;;;;;;;17.58;39.12;97444.44;5051584;28;20417;-72
2023/01/07 10:58:48;;;;;;;4.17;3.87;;;;;;;18.14;38.04;97440.19;5052233;28;20419;-70
2023/01/07 11:01:22;;;;;;;3.80;3.40;;;;;;;18.55;37.13;97434.06;5049891;28;20421;-70
2023/01/07 11:03:50;;;;;;;5.20;3.60;;;;;;;18.63;36.59;97422.44;5039616;28;20215;-70
2023/01/07 11:06:17;;;;;;;6.23;4.17;;;;;;;18.70;36.59;97419.81;5062558;28;20566;-70
2023/01/07 11:08:43;;;;;;;9.07;5.60;;;;;;;18.54;37.04;97413.03;5050960;28;20817;-71
2023/01/07 11:11:17;;;;;;;13.43;7.10;;;;;;;18.22;37.39;97413.50;5042758;28;20488;-74
2023/01/07 11:13:56;;;;;;;6.10;4.00;;;;;;;18.65;36.69;97411.66;5056331;28;20234;-71
2023/01/07 11:16:26;;;;;;;3.90;3.20;;;;;;;18.61;36.72;97407.75;5056404;28;20429;-73
2023/01/07 11:19:08;;;;;;;4.63;4.23;;;;;;;18.61;37.01;97399.78;5056031;28;20897;-71
2023/01/07 11:21:38;;;;;;;4.97;4.40;;;;;;;18.86;36.93;97405.34;5044666;28;20825;-72
2023/01/07 11:24:25;;;;;;;5.73;3.47;;;;;;;18.84;36.65;97394.94;5049478;28;20429;-71
2023/01/07 11:26:51;;;;;;;4.50;4.00;;;;;;;18.82;36.78;97386.38;5061161;28;20404;-71
2023/01/07 11:29:36;;;;;;;5.97;4.07;;;;;;;18.14;37.65;97394.28;5058599;28;20422;-71
2023/01/07 11:32:04;;;;;;;3.77;3.47;;;;;;;18.33;37.79;97384.78;5064354;28;20432;-71
2023/01/07 11:34:51;;;;;;;5.60;3.83;;;;;;;17.93;37.93;97380.88;5055249;28;20458;-72
2023/01/07 11:37:37;;;;;;;4.07;3.57;;;;;;;17.82;38.17;97376.13;5069825;28;20450;-71
2023/01/07 11:40:26;;;;;;;3.83;3.50;;;;;;;17.86;38.06;97372.06;5060644;28;20422;-70
2023/01/07 11:43:00;;;;;;;5.80;4.00;;;;;;;18.17;37.97;97368.16;5066968;28;20928;-72
2023/01/07 11:45:31;;;;;;;4.60;3.97;;;;;;;18.03;37.93;97355.84;5056915;28;20438;-70